sensor_id;sensor_type;location;lat;lon;timestamp;P1;durP1;ratioP1;P2;durP2;ratioP2
15102;SDS011;7652;53.584;9.998;2023-01-05T00:01:32;10.33;;;1.63;;
15102;SDS011;7652;53.584;9.998;2023-01-05T00:04:35;7.43;;;1.80;;
15102;SDS011;7652;53.584;9.998;2023-01-05T00:07:40;7.77;;;1.47;;
15102;SDS011;7652;53.584;9.998;2023-01-05T00:10:43;4.50;;;1.30;;
15102;SDS011;7652;53.584;9.998;2023-01-05T00:14:04;3.40;;;1.00;;
15102;SDS011;7652;53.584;9.998;2023-01-05T00:17:25;4.57;;;1.73;;
15102;SDS011;7652;53.584;9.998;2023-01-05T00:20:46;7.63;;;1.37;;
15102;SDS011;7652;53.584;9.998;2023-01-05T00:24:08;2.77;;;0.80;;
15102;SDS011;7652;53.584;9.998;2023-01-05T00:27:11;8.03;;;1.50;;
15102;SDS011;7652;53.584;9.998;2023-01-05T00:30:14;3.83;;;1.13;;
15102;SDS011;7652;53.584;9.998;2023-01-05T00:33:18;6.93;;;1.57;;
15102;SDS011;7652;53.584;9.998;2023-01-05T00:36:21;4.83;;;1.47;;
15102;SDS011;7652;53.584;9.998;2023-01-05T00:39:26;7.90;;;1.40;;
15102;SDS011;7652;53.584;9.998;2023-01-05T00:42:29;8.60;;;1.50;;
15102;SDS011;7652;53.584;9.998;2023-01-05T00:45:32;3.80;;;1.10;;
15102;SDS011;7652;53.584;9.998;2023-01-05T00:48:35;8.60;;;1.40;;
15102;SDS011;7652;53.584;9.998;2023-01-05T00:51:38;8.23;;;1.73;;
15102;SDS011;7652;53.584;9.998;2023-01-05T00:54:42;5.93;;;1.20;;
15102;SDS011;7652;53.584;9.998;2023-01-05T00:57:45;9.00;;;1.40;;
15102;SDS011;7652;53.584;9.998;2023-01-05T01:00:48;6.23;;;1.63;;
15102;SDS011;7652;53.584;9.998;2023-01-05T01:03:51;7.57;;;1.60;;
15102;SDS011;7652;53.584;9.998;2023-01-05T01:06:54;5.67;;;1.10;;
15102;SDS011;7652;53.584;9.998;2023-01-05T01:09:58;11.03;;;1.77;;
15102;SDS011;7652;53.584;9.998;2023-01-05T01:13:01;6.20;;;1.13;;
15102;SDS011;7652;53.584;9.998;2023-01-05T01:16:05;7.60;;;1.40;;
15102;SDS011;7652;53.584;9.998;2023-01-05T01:19:11;5.47;;;1.40;;
15102;SDS011;7652;53.584;9.998;2023-01-05T01:22:15;5.50;;;1.00;;
15102;SDS011;7652;53.584;9.998;2023-01-05T01:25:20;5.73;;;1.13;;
15102;SDS011;7652;53.584;9.998;2023-01-05T01:28:23;6.70;;;1.30;;
15102;SDS011;7652;53.584;9.998;2023-01-05T01:31:26;4.93;;;1.30;;
15102;SDS011;7652;53.584;9.998;2023-01-05T01:34:29;3.40;;;1.43;;
15102;SDS011;7652;53.584;9.998;2023-01-05T01:37:32;4.53;;;0.90;;
15102;SDS011;7652;53.584;9.998;2023-01-05T01:40:38;3.30;;;1.17;;
15102;SDS011;7652;53.584;9.998;2023-01-05T01:43:43;5.03;;;1.00;;
15102;SDS011;7652;53.584;9.998;2023-01-05T01:46:48;3.97;;;1.00;;
15102;SDS011;7652;53.584;9.998;2023-01-05T01:49:51;4.73;;;1.03;;
15102;SDS011;7652;53.584;9.998;2023-01-05T01:52:56;4.37;;;1.03;;
15102;SDS011;7652;53.584;9.998;2023-01-05T01:56:05;4.63;;;1.30;;
15102;SDS011;7652;53.584;9.998;2023-01-05T01:59:11;2.53;;;0.57;;
15102;SDS011;7652;53.584;9.998;2023-01-05T02:02:15;6.53;;;1.03;;
15102;SDS011;7652;53.584;9.998;2023-01-05T02:05:20;5.40;;;0.97;;
15102;SDS011;7652;53.584;9.998;2023-01-05T02:08:24;4.43;;;0.80;;
15102;SDS011;7652;53.584;9.998;2023-01-05T02:11:36;4.23;;;1.03;;
15102;SDS011;7652;53.584;9.998;2023-01-05T02:14:48;8.77;;;1.60;;
15102;SDS011;7652;53.584;9.998;2023-01-05T02:18:04;6.97;;;1.57;;
15102;SDS011;7652;53.584;9.998;2023-01-05T02:21:17;3.97;;;0.80;;
15102;SDS011;7652;53.584;9.998;2023-01-05T02:24:31;4.47;;;1.00;;
15102;SDS011;7652;53.584;9.998;2023-01-05T02:27:47;4.53;;;1.00;;
15102;SDS011;7652;53.584;9.998;2023-01-05T02:31:04;7.63;;;1.17;;
15102;SDS011;7652;53.584;9.998;2023-01-05T02:34:13;4.40;;;0.97;;
15102;SDS011;7652;53.584;9.998;2023-01-05T02:37:23;5.00;;;1.00;;
15102;SDS011;7652;53.584;9.998;2023-01-05T02:40:33;4.87;;;1.30;;
15102;SDS011;7652;53.584;9.998;2023-01-05T02:43:42;5.60;;;1.07;;
15102;SDS011;7652;53.584;9.998;2023-01-05T02:46:57;3.57;;;1.03;;
15102;SDS011;7652;53.584;9.998;2023-01-05T02:50:01;5.97;;;1.73;;
15102;SDS011;7652;53.584;9.998;2023-01-05T02:53:11;4.70;;;1.07;;
15102;SDS011;7652;53.584;9.998;2023-01-05T02:56:22;4.13;;;1.13;;
15102;SDS011;7652;53.584;9.998;2023-01-05T02:59:29;6.60;;;1.47;;
15102;SDS011;7652;53.584;9.998;2023-01-05T03:02:38;3.77;;;1.10;;
15102;SDS011;7652;53.584;9.998;2023-01-05T03:05:45;3.03;;;0.73;;
15102;SDS011;7652;53.584;9.998;2023-01-05T03:08:54;2.00;;;0.80;;
15102;SDS011;7652;53.584;9.998;2023-01-05T03:12:01;4.13;;;0.90;;
15102;SDS011;7652;53.584;9.998;2023-01-05T03:15:30;6.90;;;1.30;;
15102;SDS011;7652;53.584;9.998;2023-01-05T03:18:35;1.50;;;0.40;;
15102;SDS011;7652;53.584;9.998;2023-01-05T03:22:00;3.67;;;0.80;;
15102;SDS011;7652;53.584;9.998;2023-01-05T03:25:23;3.07;;;0.63;;
15102;SDS011;7652;53.584;9.998;2023-01-05T03:28:46;5.20;;;0.77;;
15102;SDS011;7652;53.584;9.998;2023-01-05T03:32:15;2.43;;;0.60;;
15102;SDS011;7652;53.584;9.998;2023-01-05T03:35:42;1.47;;;0.63;;
15102;SDS011;7652;53.584;9.998;2023-01-05T03:38:49;3.97;;;0.80;;
15102;SDS011;7652;53.584;9.998;2023-01-05T03:41:54;3.83;;;1.10;;
15102;SDS011;7652;53.584;9.998;2023-01-05T03:44:57;4.50;;;1.17;;
15102;SDS011;7652;53.584;9.998;2023-01-05T03:48:00;6.37;;;1.00;;
15102;SDS011;7652;53.584;9.998;2023-01-05T03:51:05;4.93;;;0.70;;
15102;SDS011;7652;53.584;9.998;2023-01-05T03:54:09;4.53;;;1.00;;
15102;SDS011;7652;53.584;9.998;2023-01-05T03:57:12;4.03;;;0.70;;
15102;SDS011;7652;53.584;9.998;2023-01-05T04:00:15;6.50;;;1.30;;
15102;SDS011;7652;53.584;9.998;2023-01-05T04:03:19;3.20;;;0.70;;
15102;SDS011;7652;53.584;9.998;2023-01-05T04:06:29;3.23;;;0.90;;
15102;SDS011;7652;53.584;9.998;2023-01-05T04:09:32;6.17;;;1.27;;
15102;SDS011;7652;53.584;9.998;2023-01-05T04:12:35;3.70;;;0.60;;
15102;SDS011;7652;53.584;9.998;2023-01-05T04:15:38;4.13;;;0.93;;
15102;SDS011;7652;53.584;9.998;2023-01-05T04:18:42;5.57;;;0.83;;
15102;SDS011;7652;53.584;9.998;2023-01-05T04:21:46;3.53;;;0.77;;
15102;SDS011;7652;53.584;9.998;2023-01-05T04:24:49;4.10;;;1.07;;
15102;SDS011;7652;53.584;9.998;2023-01-05T04:27:52;6.37;;;1.17;;
15102;SDS011;7652;53.584;9.998;2023-01-05T04:30:55;6.07;;;0.90;;
15102;SDS011;7652;53.584;9.998;2023-01-05T04:33:58;3.67;;;0.70;;
15102;SDS011;7652;53.584;9.998;2023-01-05T04:37:03;7.53;;;1.53;;
15102;SDS011;7652;53.584;9.998;2023-01-05T04:40:06;6.07;;;0.90;;
15102;SDS011;7652;53.584;9.998;2023-01-05T04:43:10;2.57;;;0.60;;
15102;SDS011;7652;53.584;9.998;2023-01-05T04:46:13;4.13;;;1.00;;
15102;SDS011;7652;53.584;9.998;2023-01-05T04:49:16;4.33;;;0.87;;
15102;SDS011;7652;53.584;9.998;2023-01-05T04:52:20;7.40;;;1.00;;
15102;SDS011;7652;53.584;9.998;2023-01-05T04:55:23;4.97;;;0.90;;
15102;SDS011;7652;53.584;9.998;2023-01-05T04:58:28;3.33;;;1.00;;
15102;SDS011;7652;53.584;9.998;2023-01-05T05:01:31;3.20;;;0.80;;
15102;SDS011;7652;53.584;9.998;2023-01-05T05:04:34;3.53;;;0.97;;
15102;SDS011;7652;53.584;9.998;2023-01-05T05:07:38;5.90;;;0.63;;
15102;SDS011;7652;53.584;9.998;2023-01-05T05:10:41;4.10;;;1.30;;
15102;SDS011;7652;53.584;9.998;2023-01-05T05:13:44;8.00;;;1.03;;
15102;SDS011;7652;53.584;9.998;2023-01-05T05:16:47;4.33;;;0.87;;
15102;SDS011;7652;53.584;9.998;2023-01-05T05:19:50;3.13;;;0.70;;
15102;SDS011;7652;53.584;9.998;2023-01-05T05:22:54;3.30;;;0.90;;
15102;SDS011;7652;53.584;9.998;2023-01-05T05:25:58;4.37;;;0.97;;
15102;SDS011;7652;53.584;9.998;2023-01-05T05:29:00;5.27;;;1.03;;
15102;SDS011;7652;53.584;9.998;2023-01-05T05:32:03;3.87;;;0.80;;
15102;SDS011;7652;53.584;9.998;2023-01-05T05:35:07;3.80;;;1.10;;
15102;SDS011;7652;53.584;9.998;2023-01-05T05:38:11;4.83;;;1.00;;
15102;SDS011;7652;53.584;9.998;2023-01-05T05:41:14;5.90;;;0.90;;
15102;SDS011;7652;53.584;9.998;2023-01-05T05:44:17;4.63;;;0.80;;
15102;SDS011;7652;53.584;9.998;2023-01-05T05:47:21;3.83;;;0.90;;
15102;SDS011;7652;53.584;9.998;2023-01-05T05:50:24;6.20;;;1.40;;
15102;SDS011;7652;53.584;9.998;2023-01-05T05:53:28;3.77;;;1.00;;
15102;SDS011;7652;53.584;9.998;2023-01-05T05:56:31;6.70;;;1.20;;
15102;SDS011;7652;53.584;9.998;2023-01-05T05:59:34;9.43;;;4.10;;
15102;SDS011;7652;53.584;9.998;2023-01-05T06:02:37;6.00;;;1.53;;
15102;SDS011;7652;53.584;9.998;2023-01-05T06:05:41;3.80;;;0.80;;
15102;SDS011;7652;53.584;9.998;2023-01-05T06:08:45;7.13;;;1.67;;
15102;SDS011;7652;53.584;9.998;2023-01-05T06:11:48;4.30;;;0.83;;
15102;SDS011;7652;53.584;9.998;2023-01-05T06:14:51;5.27;;;1.70;;
15102;SDS011;7652;53.584;9.998;2023-01-05T06:17:54;5.00;;;1.10;;
15102;SDS011;7652;53.584;9.998;2023-01-05T06:20:57;3.60;;;1.07;;
15102;SDS011;7652;53.584;9.998;2023-01-05T06:24:04;2.60;;;1.20;;
15102;SDS011;7652;53.584;9.998;2023-01-05T06:27:07;4.70;;;0.83;;
15102;SDS011;7652;53.584;9.998;2023-01-05T06:30:11;5.10;;;0.90;;
15102;SDS011;7652;53.584;9.998;2023-01-05T06:33:15;9.33;;;1.30;;
15102;SDS011;7652;53.584;9.998;2023-01-05T06:36:18;4.80;;;1.47;;
15102;SDS011;7652;53.584;9.998;2023-01-05T06:39:22;5.40;;;1.03;;
15102;SDS011;7652;53.584;9.998;2023-01-05T06:42:25;2.80;;;0.80;;
15102;SDS011;7652;53.584;9.998;2023-01-05T06:45:28;5.13;;;0.97;;
15102;SDS011;7652;53.584;9.998;2023-01-05T06:48:32;5.70;;;1.30;;
15102;SDS011;7652;53.584;9.998;2023-01-05T06:51:35;4.90;;;1.23;;
15102;SDS011;7652;53.584;9.998;2023-01-05T06:54:39;6.37;;;1.30;;
15102;SDS011;7652;53.584;9.998;2023-01-05T06:57:42;6.73;;;1.27;;
15102;SDS011;7652;53.584;9.998;2023-01-05T07:00:45;3.13;;;1.10;;
15102;SDS011;7652;53.584;9.998;2023-01-05T07:03:48;5.47;;;1.30;;
15102;SDS011;7652;53.584;9.998;2023-01-05T07:06:51;9.53;;;1.40;;
15102;SDS011;7652;53.584;9.998;2023-01-05T07:09:56;5.63;;;0.90;;
15102;SDS011;7652;53.584;9.998;2023-01-05T07:12:59;5.07;;;1.17;;
15102;SDS011;7652;53.584;9.998;2023-01-05T07:16:02;5.63;;;1.10;;
15102;SDS011;7652;53.584;9.998;2023-01-05T07:19:05;3.73;;;0.73;;
15102;SDS011;7652;53.584;9.998;2023-01-05T07:22:08;5.10;;;1.70;;
15102;SDS011;7652;53.584;9.998;2023-01-05T07:25:13;8.30;;;1.33;;
15102;SDS011;7652;53.584;9.998;2023-01-05T07:28:16;7.13;;;1.03;;
15102;SDS011;7652;53.584;9.998;2023-01-05T07:31:19;5.83;;;1.87;;
15102;SDS011;7652;53.584;9.998;2023-01-05T07:34:22;5.37;;;1.30;;
15102;SDS011;7652;53.584;9.998;2023-01-05T07:37:25;6.33;;;1.10;;
15102;SDS011;7652;53.584;9.998;2023-01-05T07:40:29;6.87;;;1.40;;
15102;SDS011;7652;53.584;9.998;2023-01-05T07:43:32;4.63;;;0.93;;
15102;SDS011;7652;53.584;9.998;2023-01-05T07:46:36;6.70;;;0.87;;
15102;SDS011;7652;53.584;9.998;2023-01-05T07:49:39;10.03;;;1.67;;
15102;SDS011;7652;53.584;9.998;2023-01-05T07:52:42;7.93;;;1.40;;
15102;SDS011;7652;53.584;9.998;2023-01-05T07:55:55;7.67;;;1.37;;
15102;SDS011;7652;53.584;9.998;2023-01-05T07:58:58;9.73;;;1.63;;
15102;SDS011;7652;53.584;9.998;2023-01-05T08:02:01;9.13;;;1.30;;
15102;SDS011;7652;53.584;9.998;2023-01-05T08:05:05;6.53;;;1.70;;
15102;SDS011;7652;53.584;9.998;2023-01-05T08:08:08;11.73;;;1.43;;
15102;SDS011;7652;53.584;9.998;2023-01-05T08:11:14;9.93;;;2.10;;
15102;SDS011;7652;53.584;9.998;2023-01-05T08:14:18;8.87;;;1.63;;
15102;SDS011;7652;53.584;9.998;2023-01-05T08:17:21;10.87;;;1.93;;
15102;SDS011;7652;53.584;9.998;2023-01-05T08:20:24;5.43;;;1.10;;
15102;SDS011;7652;53.584;9.998;2023-01-05T08:23:27;10.13;;;1.70;;
15102;SDS011;7652;53.584;9.998;2023-01-05T08:26:31;10.20;;;2.27;;
15102;SDS011;7652;53.584;9.998;2023-01-05T08:29:35;8.57;;;1.67;;
15102;SDS011;7652;53.584;9.998;2023-01-05T08:32:38;7.47;;;1.37;;
15102;SDS011;7652;53.584;9.998;2023-01-05T08:35:41;5.67;;;1.60;;
15102;SDS011;7652;53.584;9.998;2023-01-05T08:38:45;7.23;;;1.60;;
15102;SDS011;7652;53.584;9.998;2023-01-05T08:41:50;10.77;;;1.77;;
15102;SDS011;7652;53.584;9.998;2023-01-05T08:45:03;8.33;;;1.83;;
15102;SDS011;7652;53.584;9.998;2023-01-05T08:48:06;7.53;;;1.30;;
15102;SDS011;7652;53.584;9.998;2023-01-05T08:51:10;7.47;;;1.13;;
15102;SDS011;7652;53.584;9.998;2023-01-05T08:54:13;7.03;;;1.30;;
15102;SDS011;7652;53.584;9.998;2023-01-05T08:57:18;4.40;;;1.30;;
15102;SDS011;7652;53.584;9.998;2023-01-05T09:00:21;6.37;;;1.20;;
15102;SDS011;7652;53.584;9.998;2023-01-05T09:03:24;9.63;;;1.40;;
15102;SDS011;7652;53.584;9.998;2023-01-05T09:06:27;5.13;;;1.40;;
15102;SDS011;7652;53.584;9.998;2023-01-05T09:09:30;6.53;;;1.27;;
15102;SDS011;7652;53.584;9.998;2023-01-05T09:12:35;5.63;;;1.10;;
15102;SDS011;7652;53.584;9.998;2023-01-05T09:15:39;5.77;;;1.30;;
15102;SDS011;7652;53.584;9.998;2023-01-05T09:18:42;5.67;;;1.10;;
15102;SDS011;7652;53.584;9.998;2023-01-05T09:21:45;6.80;;;1.57;;
15102;SDS011;7652;53.584;9.998;2023-01-05T09:24:48;6.53;;;1.20;;
15102;SDS011;7652;53.584;9.998;2023-01-05T09:27:52;5.40;;;1.40;;
15102;SDS011;7652;53.584;9.998;2023-01-05T09:30:55;6.10;;;1.20;;
15102;SDS011;7652;53.584;9.998;2023-01-05T09:33:59;4.57;;;1.00;;
15102;SDS011;7652;53.584;9.998;2023-01-05T09:37:02;7.13;;;1.43;;
15102;SDS011;7652;53.584;9.998;2023-01-05T09:40:05;5.80;;;1.33;;
15102;SDS011;7652;53.584;9.998;2023-01-05T09:43:11;6.73;;;1.00;;
15102;SDS011;7652;53.584;9.998;2023-01-05T09:46:24;12.23;;;1.60;;
15102;SDS011;7652;53.584;9.998;2023-01-05T09:49:30;5.30;;;1.10;;
15102;SDS011;7652;53.584;9.998;2023-01-05T09:52:35;7.33;;;1.37;;
15102;SDS011;7652;53.584;9.998;2023-01-05T09:55:39;10.63;;;1.50;;
15102;SDS011;7652;53.584;9.998;2023-01-05T09:58:45;4.77;;;1.33;;
15102;SDS011;7652;53.584;9.998;2023-01-05T10:01:49;4.93;;;1.37;;
15102;SDS011;7652;53.584;9.998;2023-01-05T10:04:53;6.33;;;1.43;;
15102;SDS011;7652;53.584;9.998;2023-01-05T10:07:58;10.23;;;1.83;;
15102;SDS011;7652;53.584;9.998;2023-01-05T10:11:04;6.33;;;1.57;;
15102;SDS011;7652;53.584;9.998;2023-01-05T10:14:31;8.20;;;1.50;;
15102;SDS011;7652;53.584;9.998;2023-01-05T10:17:39;7.47;;;1.30;;
15102;SDS011;7652;53.584;9.998;2023-01-05T10:20:47;7.63;;;1.67;;
15102;SDS011;7652;53.584;9.998;2023-01-05T10:24:02;7.17;;;1.50;;
15102;SDS011;7652;53.584;9.998;2023-01-05T10:27:17;6.80;;;1.47;;
15102;SDS011;7652;53.584;9.998;2023-01-05T10:30:31;14.17;;;1.60;;
15102;SDS011;7652;53.584;9.998;2023-01-05T10:33:46;8.93;;;1.43;;
15102;SDS011;7652;53.584;9.998;2023-01-05T10:36:59;7.70;;;1.70;;
15102;SDS011;7652;53.584;9.998;2023-01-05T10:40:13;5.30;;;1.20;;
15102;SDS011;7652;53.584;9.998;2023-01-05T10:47:06;4.63;;;1.23;;
15102;SDS011;7652;53.584;9.998;2023-01-05T10:53:39;6.07;;;1.30;;
15102;SDS011;7652;53.584;9.998;2023-01-05T10:56:44;6.97;;;1.40;;
15102;SDS011;7652;53.584;9.998;2023-01-05T10:59:52;9.40;;;1.40;;
15102;SDS011;7652;53.584;9.998;2023-01-05T11:03:00;5.97;;;1.60;;
15102;SDS011;7652;53.584;9.998;2023-01-05T11:06:05;12.23;;;2.10;;
15102;SDS011;7652;53.584;9.998;2023-01-05T11:09:14;7.73;;;1.80;;
15102;SDS011;7652;53.584;9.998;2023-01-05T11:12:23;6.80;;;1.30;;
15102;SDS011;7652;53.584;9.998;2023-01-05T11:15:27;4.80;;;1.47;;
15102;SDS011;7652;53.584;9.998;2023-01-05T11:18:34;9.27;;;1.27;;
15102;SDS011;7652;53.584;9.998;2023-01-05T11:21:42;7.40;;;1.50;;
15102;SDS011;7652;53.584;9.998;2023-01-05T11:24:47;9.63;;;1.80;;
15102;SDS011;7652;53.584;9.998;2023-01-05T11:28:04;7.93;;;1.90;;
15102;SDS011;7652;53.584;9.998;2023-01-05T11:31:08;3.00;;;1.07;;
15102;SDS011;7652;53.584;9.998;2023-01-05T11:34:19;4.27;;;1.20;;
15102;SDS011;7652;53.584;9.998;2023-01-05T11:37:29;9.13;;;2.60;;
15102;SDS011;7652;53.584;9.998;2023-01-05T11:40:33;8.27;;;2.00;;
15102;SDS011;7652;53.584;9.998;2023-01-05T11:43:37;9.13;;;2.13;;
15102;SDS011;7652;53.584;9.998;2023-01-05T11:46:40;10.57;;;1.70;;
15102;SDS011;7652;53.584;9.998;2023-01-05T11:49:46;5.77;;;1.43;;
15102;SDS011;7652;53.584;9.998;2023-01-05T11:52:57;8.57;;;1.63;;
15102;SDS011;7652;53.584;9.998;2023-01-05T11:56:02;8.20;;;1.37;;
15102;SDS011;7652;53.584;9.998;2023-01-05T11:59:26;10.77;;;1.37;;
15102;SDS011;7652;53.584;9.998;2023-01-05T12:02:43;8.07;;;1.40;;
15102;SDS011;7652;53.584;9.998;2023-01-05T12:06:08;6.47;;;1.37;;
15102;SDS011;7652;53.584;9.998;2023-01-05T12:09:23;10.50;;;1.80;;
15102;SDS011;7652;53.584;9.998;2023-01-05T12:12:38;7.20;;;1.43;;
15102;SDS011;7652;53.584;9.998;2023-01-05T12:15:51;5.07;;;1.30;;
15102;SDS011;7652;53.584;9.998;2023-01-05T12:19:08;6.17;;;1.50;;
15102;SDS011;7652;53.584;9.998;2023-01-05T12:26:07;8.97;;;1.97;;
15102;SDS011;7652;53.584;9.998;2023-01-05T12:29:22;4.93;;;1.20;;
15102;SDS011;7652;53.584;9.998;2023-01-05T12:33:16;6.40;;;1.53;;
15102;SDS011;7652;53.584;9.998;2023-01-05T12:36:52;8.30;;;2.20;;
15102;SDS011;7652;53.584;9.998;2023-01-05T12:40:08;5.43;;;1.30;;
15102;SDS011;7652;53.584;9.998;2023-01-05T12:43:23;7.17;;;1.00;;
15102;SDS011;7652;53.584;9.998;2023-01-05T12:46:45;4.80;;;1.20;;
15102;SDS011;7652;53.584;9.998;2023-01-05T12:50:01;12.57;;;1.90;;
15102;SDS011;7652;53.584;9.998;2023-01-05T12:53:14;4.80;;;1.13;;
15102;SDS011;7652;53.584;9.998;2023-01-05T12:56:25;7.90;;;1.93;;
15102;SDS011;7652;53.584;9.998;2023-01-05T12:59:33;3.77;;;1.27;;
15102;SDS011;7652;53.584;9.998;2023-01-05T13:02:41;4.27;;;1.20;;
15102;SDS011;7652;53.584;9.998;2023-01-05T13:05:51;6.10;;;1.03;;
15102;SDS011;7652;53.584;9.998;2023-01-05T13:09:01;5.23;;;0.90;;
15102;SDS011;7652;53.584;9.998;2023-01-05T13:12:11;3.73;;;0.80;;
15102;SDS011;7652;53.584;9.998;2023-01-05T13:15:15;2.33;;;0.70;;
15102;SDS011;7652;53.584;9.998;2023-01-05T13:18:23;4.07;;;1.07;;
15102;SDS011;7652;53.584;9.998;2023-01-05T13:21:28;5.30;;;1.17;;
15102;SDS011;7652;53.584;9.998;2023-01-05T13:24:34;3.47;;;0.80;;
15102;SDS011;7652;53.584;9.998;2023-01-05T13:27:42;1.83;;;0.60;;
15102;SDS011;7652;53.584;9.998;2023-01-05T13:30:49;3.50;;;0.97;;
15102;SDS011;7652;53.584;9.998;2023-01-05T13:34:09;3.03;;;0.50;;
15102;SDS011;7652;53.584;9.998;2023-01-05T13:37:45;3.87;;;0.97;;
15102;SDS011;7652;53.584;9.998;2023-01-05T13:41:09;2.93;;;0.60;;
15102;SDS011;7652;53.584;9.998;2023-01-05T13:44:39;2.57;;;0.63;;
15102;SDS011;7652;53.584;9.998;2023-01-05T13:48:14;2.77;;;0.60;;
15102;SDS011;7652;53.584;9.998;2023-01-05T13:51:49;3.20;;;0.60;;
15102;SDS011;7652;53.584;9.998;2023-01-05T13:54:57;1.87;;;0.93;;
15102;SDS011;7652;53.584;9.998;2023-01-05T13:58:04;2.83;;;0.70;;
15102;SDS011;7652;53.584;9.998;2023-01-05T14:01:32;4.93;;;0.83;;
15102;SDS011;7652;53.584;9.998;2023-01-05T14:04:36;2.83;;;0.80;;
15102;SDS011;7652;53.584;9.998;2023-01-05T14:07:47;4.03;;;0.83;;
15102;SDS011;7652;53.584;9.998;2023-01-05T14:11:07;5.17;;;1.07;;
15102;SDS011;7652;53.584;9.998;2023-01-05T14:14:24;3.60;;;0.90;;
15102;SDS011;7652;53.584;9.998;2023-01-05T14:20:54;3.50;;;1.03;;
15102;SDS011;7652;53.584;9.998;2023-01-05T14:23:57;5.50;;;1.00;;
15102;SDS011;7652;53.584;9.998;2023-01-05T14:27:02;3.63;;;0.90;;
15102;SDS011;7652;53.584;9.998;2023-01-05T14:30:19;3.10;;;0.97;;
15102;SDS011;7652;53.584;9.998;2023-01-05T14:33:23;4.07;;;1.20;;
15102;SDS011;7652;53.584;9.998;2023-01-05T14:36:28;4.27;;;1.90;;
15102;SDS011;7652;53.584;9.998;2023-01-05T14:39:40;4.43;;;1.73;;
15102;SDS011;7652;53.584;9.998;2023-01-05T14:42:45;5.60;;;0.90;;
15102;SDS011;7652;53.584;9.998;2023-01-05T14:46:01;2.97;;;0.80;;
15102;SDS011;7652;53.584;9.998;2023-01-05T14:49:08;6.87;;;0.87;;
15102;SDS011;7652;53.584;9.998;2023-01-05T14:56:16;4.27;;;0.93;;
15102;SDS011;7652;53.584;9.998;2023-01-05T14:59:23;4.63;;;1.00;;
15102;SDS011;7652;53.584;9.998;2023-01-05T15:02:28;5.23;;;1.07;;
15102;SDS011;7652;53.584;9.998;2023-01-05T15:05:39;2.10;;;0.80;;
15102;SDS011;7652;53.584;9.998;2023-01-05T15:09:10;2.63;;;0.90;;
15102;SDS011;7652;53.584;9.998;2023-01-05T15:12:31;5.70;;;1.40;;
15102;SDS011;7652;53.584;9.998;2023-01-05T15:16:01;2.53;;;1.03;;
15102;SDS011;7652;53.584;9.998;2023-01-05T15:19:13;8.57;;;1.70;;
15102;SDS011;7652;53.584;9.998;2023-01-05T15:22:35;3.47;;;1.20;;
15102;SDS011;7652;53.584;9.998;2023-01-05T15:26:00;4.37;;;0.90;;
15102;SDS011;7652;53.584;9.998;2023-01-05T15:29:19;3.50;;;1.17;;
15102;SDS011;7652;53.584;9.998;2023-01-05T15:32:35;5.83;;;1.40;;
15102;SDS011;7652;53.584;9.998;2023-01-05T15:35:43;3.03;;;1.10;;
15102;SDS011;7652;53.584;9.998;2023-01-05T15:38:52;3.47;;;1.20;;
15102;SDS011;7652;53.584;9.998;2023-01-05T15:41:56;3.80;;;1.40;;
15102;SDS011;7652;53.584;9.998;2023-01-05T15:45:02;3.60;;;1.07;;
15102;SDS011;7652;53.584;9.998;2023-01-05T15:48:08;6.97;;;1.40;;
15102;SDS011;7652;53.584;9.998;2023-01-05T15:51:26;6.20;;;1.30;;
15102;SDS011;7652;53.584;9.998;2023-01-05T15:54:32;1.87;;;0.80;;
15102;SDS011;7652;53.584;9.998;2023-01-05T15:57:36;5.27;;;1.23;;
15102;SDS011;7652;53.584;9.998;2023-01-05T16:00:39;4.40;;;1.67;;
15102;SDS011;7652;53.584;9.998;2023-01-05T16:03:43;4.10;;;1.20;;
15102;SDS011;7652;53.584;9.998;2023-01-05T16:06:48;4.97;;;1.50;;
15102;SDS011;7652;53.584;9.998;2023-01-05T16:09:55;5.67;;;1.40;;
15102;SDS011;7652;53.584;9.998;2023-01-05T16:13:00;4.67;;;1.00;;
15102;SDS011;7652;53.584;9.998;2023-01-05T16:16:09;4.20;;;1.10;;
15102;SDS011;7652;53.584;9.998;2023-01-05T16:19:38;6.53;;;1.23;;
15102;SDS011;7652;53.584;9.998;2023-01-05T16:22:45;3.30;;;1.40;;
15102;SDS011;7652;53.584;9.998;2023-01-05T16:25:57;6.33;;;1.30;;
15102;SDS011;7652;53.584;9.998;2023-01-05T16:29:00;5.47;;;1.13;;
15102;SDS011;7652;53.584;9.998;2023-01-05T16:32:28;6.63;;;1.27;;
15102;SDS011;7652;53.584;9.998;2023-01-05T16:35:38;2.43;;;1.03;;
15102;SDS011;7652;53.584;9.998;2023-01-05T16:38:43;4.47;;;1.30;;
15102;SDS011;7652;53.584;9.998;2023-01-05T16:41:48;7.03;;;1.77;;
15102;SDS011;7652;53.584;9.998;2023-01-05T16:45:16;3.23;;;1.30;;
15102;SDS011;7652;53.584;9.998;2023-01-05T16:48:40;6.23;;;1.63;;
15102;SDS011;7652;53.584;9.998;2023-01-05T16:51:48;2.13;;;1.20;;
15102;SDS011;7652;53.584;9.998;2023-01-05T16:58:33;4.53;;;1.07;;
15102;SDS011;7652;53.584;9.998;2023-01-05T17:01:39;6.93;;;1.47;;
15102;SDS011;7652;53.584;9.998;2023-01-05T17:04:46;5.77;;;1.50;;
15102;SDS011;7652;53.584;9.998;2023-01-05T17:07:49;3.57;;;1.57;;
15102;SDS011;7652;53.584;9.998;2023-01-05T17:10:58;4.80;;;1.93;;
15102;SDS011;7652;53.584;9.998;2023-01-05T17:14:05;2.30;;;1.27;;
15102;SDS011;7652;53.584;9.998;2023-01-05T17:17:08;3.70;;;1.47;;
15102;SDS011;7652;53.584;9.998;2023-01-05T17:20:13;5.40;;;1.43;;
15102;SDS011;7652;53.584;9.998;2023-01-05T17:23:20;5.10;;;1.00;;
15102;SDS011;7652;53.584;9.998;2023-01-05T17:26:26;3.30;;;1.20;;
15102;SDS011;7652;53.584;9.998;2023-01-05T17:29:32;4.63;;;1.20;;
15102;SDS011;7652;53.584;9.998;2023-01-05T17:32:36;5.90;;;1.70;;
15102;SDS011;7652;53.584;9.998;2023-01-05T17:35:39;3.33;;;1.40;;
15102;SDS011;7652;53.584;9.998;2023-01-05T17:38:42;6.80;;;1.50;;
15102;SDS011;7652;53.584;9.998;2023-01-05T17:41:47;5.90;;;1.60;;
15102;SDS011;7652;53.584;9.998;2023-01-05T17:44:52;6.03;;;1.40;;
15102;SDS011;7652;53.584;9.998;2023-01-05T17:47:55;7.73;;;1.80;;
15102;SDS011;7652;53.584;9.998;2023-01-05T17:50:58;6.27;;;1.77;;
15102;SDS011;7652;53.584;9.998;2023-01-05T17:54:02;4.87;;;2.03;;
15102;SDS011;7652;53.584;9.998;2023-01-05T17:57:05;5.50;;;1.67;;
15102;SDS011;7652;53.584;9.998;2023-01-05T18:00:16;5.47;;;1.93;;
15102;SDS011;7652;53.584;9.998;2023-01-05T18:03:22;7.90;;;2.03;;
15102;SDS011;7652;53.584;9.998;2023-01-05T18:06:25;8.10;;;1.50;;
15102;SDS011;7652;53.584;9.998;2023-01-05T18:09:28;6.33;;;1.80;;
15102;SDS011;7652;53.584;9.998;2023-01-05T18:12:34;4.17;;;1.50;;
15102;SDS011;7652;53.584;9.998;2023-01-05T18:15:41;5.47;;;1.80;;
15102;SDS011;7652;53.584;9.998;2023-01-05T18:18:45;5.00;;;1.57;;
15102;SDS011;7652;53.584;9.998;2023-01-05T18:21:48;5.37;;;1.63;;
15102;SDS011;7652;53.584;9.998;2023-01-05T18:24:51;5.90;;;2.20;;
15102;SDS011;7652;53.584;9.998;2023-01-05T18:27:54;5.57;;;1.90;;
15102;SDS011;7652;53.584;9.998;2023-01-05T18:30:58;9.20;;;4.10;;
15102;SDS011;7652;53.584;9.998;2023-01-05T18:34:02;3.77;;;1.80;;
15102;SDS011;7652;53.584;9.998;2023-01-05T18:37:05;9.80;;;3.37;;
15102;SDS011;7652;53.584;9.998;2023-01-05T18:40:21;11.17;;;3.27;;
15102;SDS011;7652;53.584;9.998;2023-01-05T18:43:24;9.27;;;3.60;;
15102;SDS011;7652;53.584;9.998;2023-01-05T18:46:29;14.50;;;5.00;;
15102;SDS011;7652;53.584;9.998;2023-01-05T18:49:32;8.10;;;4.07;;
15102;SDS011;7652;53.584;9.998;2023-01-05T18:52:35;14.20;;;4.43;;
15102;SDS011;7652;53.584;9.998;2023-01-05T18:55:38;11.60;;;4.80;;
15102;SDS011;7652;53.584;9.998;2023-01-05T18:58:42;12.43;;;4.47;;
15102;SDS011;7652;53.584;9.998;2023-01-05T19:01:47;10.00;;;3.40;;
15102;SDS011;7652;53.584;9.998;2023-01-05T19:04:50;4.47;;;2.60;;
15102;SDS011;7652;53.584;9.998;2023-01-05T19:07:54;8.53;;;3.50;;
15102;SDS011;7652;53.584;9.998;2023-01-05T19:10:57;10.67;;;3.53;;
15102;SDS011;7652;53.584;9.998;2023-01-05T19:14:00;8.17;;;3.70;;
15102;SDS011;7652;53.584;9.998;2023-01-05T19:17:06;6.03;;;3.10;;
15102;SDS011;7652;53.584;9.998;2023-01-05T19:20:09;7.90;;;3.40;;
15102;SDS011;7652;53.584;9.998;2023-01-05T19:23:12;7.93;;;3.13;;
15102;SDS011;7652;53.584;9.998;2023-01-05T19:26:16;7.43;;;2.90;;
15102;SDS011;7652;53.584;9.998;2023-01-05T19:29:19;4.73;;;2.37;;